sensor_id;sensor_type;location;lat;lon;timestamp;P1;durP1;ratioP1;P2;durP2;ratioP2
78732;SDS011;68056;52.530;5.454;2024-03-06T00:01:52;11.23;;;7.63;;
78732;SDS011;68056;52.530;5.454;2024-03-06T00:04:18;12.13;;;8.23;;
78732;SDS011;68056;52.530;5.454;2024-03-06T00:06:43;13.07;;;8.07;;
78732;SDS011;68056;52.530;5.454;2024-03-06T00:09:09;12.25;;;8.63;;
78732;SDS011;68056;52.530;5.454;2024-03-06T00:11:35;11.63;;;8.18;;
78732;SDS011;68056;52.530;5.454;2024-03-06T00:14:03;11.68;;;8.48;;
78732;SDS011;68056;52.530;5.454;2024-03-06T00:16:30;10.20;;;7.28;;
78732;SDS011;68056;52.530;5.454;2024-03-06T00:18:56;10.25;;;7.88;;
78732;SDS011;68056;52.530;5.454;2024-03-06T00:21:22;10.43;;;7.28;;
78732;SDS011;68056;52.530;5.454;2024-03-06T00:23:47;12.15;;;8.43;;
78732;SDS011;68056;52.530;5.454;2024-03-06T00:26:13;10.25;;;7.20;;
78732;SDS011;68056;52.530;5.454;2024-03-06T00:28:38;11.18;;;7.60;;
78732;SDS011;68056;52.530;5.454;2024-03-06T00:31:04;11.32;;;7.38;;
78732;SDS011;68056;52.530;5.454;2024-03-06T00:33:30;9.27;;;6.60;;
78732;SDS011;68056;52.530;5.454;2024-03-06T00:35:56;11.23;;;7.85;;
78732;SDS011;68056;52.530;5.454;2024-03-06T00:38:25;10.57;;;7.90;;
78732;SDS011;68056;52.530;5.454;2024-03-06T00:40:50;11.27;;;7.53;;
78732;SDS011;68056;52.530;5.454;2024-03-06T00:43:16;8.18;;;6.57;;
78732;SDS011;68056;52.530;5.454;2024-03-06T00:45:41;11.65;;;8.32;;
78732;SDS011;68056;52.530;5.454;2024-03-06T00:48:07;11.43;;;7.78;;
78732;SDS011;68056;52.530;5.454;2024-03-06T00:50:33;10.23;;;7.30;;
78732;SDS011;68056;52.530;5.454;2024-03-06T00:52:58;12.57;;;8.50;;
78732;SDS011;68056;52.530;5.454;2024-03-06T00:55:24;11.82;;;7.10;;
78732;SDS011;68056;52.530;5.454;2024-03-06T00:57:50;10.45;;;7.30;;
78732;SDS011;68056;52.530;5.454;2024-03-06T01:00:15;13.93;;;8.30;;
78732;SDS011;68056;52.530;5.454;2024-03-06T01:02:41;11.02;;;7.47;;
78732;SDS011;68056;52.530;5.454;2024-03-06T01:05:07;13.18;;;7.70;;
78732;SDS011;68056;52.530;5.454;2024-03-06T01:07:34;10.00;;;7.63;;
78732;SDS011;68056;52.530;5.454;2024-03-06T01:10:02;12.63;;;8.25;;
78732;SDS011;68056;52.530;5.454;2024-03-06T01:12:28;10.85;;;7.40;;
78732;SDS011;68056;52.530;5.454;2024-03-06T01:14:54;13.45;;;8.63;;
78732;SDS011;68056;52.530;5.454;2024-03-06T01:17:20;12.18;;;7.75;;
78732;SDS011;68056;52.530;5.454;2024-03-06T01:19:45;11.77;;;9.18;;
78732;SDS011;68056;52.530;5.454;2024-03-06T01:22:11;11.35;;;8.27;;
78732;SDS011;68056;52.530;5.454;2024-03-06T01:24:38;13.05;;;8.18;;
78732;SDS011;68056;52.530;5.454;2024-03-06T01:27:04;12.95;;;9.02;;
78732;SDS011;68056;52.530;5.454;2024-03-06T01:29:29;12.98;;;9.02;;
78732;SDS011;68056;52.530;5.454;2024-03-06T01:31:55;13.55;;;8.73;;
78732;SDS011;68056;52.530;5.454;2024-03-06T01:34:21;11.48;;;8.05;;
78732;SDS011;68056;52.530;5.454;2024-03-06T01:36:47;14.05;;;8.73;;
78732;SDS011;68056;52.530;5.454;2024-03-06T01:39:13;9.52;;;7.43;;
78732;SDS011;68056;52.530;5.454;2024-03-06T01:41:44;11.80;;;8.68;;
78732;SDS011;68056;52.530;5.454;2024-03-06T01:44:13;12.60;;;8.52;;
78732;SDS011;68056;52.530;5.454;2024-03-06T01:46:39;11.27;;;8.15;;
78732;SDS011;68056;52.530;5.454;2024-03-06T01:49:05;12.63;;;8.88;;
78732;SDS011;68056;52.530;5.454;2024-03-06T01:51:32;10.95;;;8.02;;
78732;SDS011;68056;52.530;5.454;2024-03-06T01:53:58;11.68;;;7.60;;
78732;SDS011;68056;52.530;5.454;2024-03-06T01:56:26;12.38;;;8.48;;
78732;SDS011;68056;52.530;5.454;2024-03-06T01:58:53;12.88;;;8.88;;
78732;SDS011;68056;52.530;5.454;2024-03-06T02:01:19;13.95;;;8.50;;
78732;SDS011;68056;52.530;5.454;2024-03-06T02:03:46;12.85;;;8.93;;
78732;SDS011;68056;52.530;5.454;2024-03-06T02:06:12;11.07;;;7.85;;
78732;SDS011;68056;52.530;5.454;2024-03-06T02:08:40;12.10;;;8.60;;
78732;SDS011;68056;52.530;5.454;2024-03-06T02:11:06;15.80;;;10.38;;
78732;SDS011;68056;52.530;5.454;2024-03-06T02:13:32;12.32;;;8.55;;
78732;SDS011;68056;52.530;5.454;2024-03-06T02:15:58;16.70;;;9.10;;
78732;SDS011;68056;52.530;5.454;2024-03-06T02:18:24;15.13;;;10.52;;
78732;SDS011;68056;52.530;5.454;2024-03-06T02:20:50;12.82;;;9.02;;
78732;SDS011;68056;52.530;5.454;2024-03-06T02:23:15;13.35;;;9.60;;
78732;SDS011;68056;52.530;5.454;2024-03-06T02:28:12;11.82;;;8.48;;
78732;SDS011;68056;52.530;5.454;2024-03-06T02:30:37;13.38;;;9.23;;
78732;SDS011;68056;52.530;5.454;2024-03-06T02:33:03;13.88;;;9.43;;
78732;SDS011;68056;52.530;5.454;2024-03-06T02:35:29;16.88;;;11.00;;
78732;SDS011;68056;52.530;5.454;2024-03-06T02:37:55;13.30;;;9.55;;
78732;SDS011;68056;52.530;5.454;2024-03-06T02:40:24;15.25;;;10.45;;
78732;SDS011;68056;52.530;5.454;2024-03-06T02:42:49;13.05;;;9.98;;
78732;SDS011;68056;52.530;5.454;2024-03-06T02:45:15;15.13;;;10.23;;
78732;SDS011;68056;52.530;5.454;2024-03-06T02:47:40;13.20;;;10.00;;
78732;SDS011;68056;52.530;5.454;2024-03-06T02:50:07;16.63;;;10.15;;
78732;SDS011;68056;52.530;5.454;2024-03-06T02:52:32;15.68;;;10.40;;
78732;SDS011;68056;52.530;5.454;2024-03-06T02:54:58;14.38;;;9.15;;
78732;SDS011;68056;52.530;5.454;2024-03-06T02:57:28;15.93;;;10.38;;
78732;SDS011;68056;52.530;5.454;2024-03-06T02:59:54;15.02;;;10.55;;
78732;SDS011;68056;52.530;5.454;2024-03-06T03:02:21;14.55;;;10.55;;
78732;SDS011;68056;52.530;5.454;2024-03-06T03:04:46;16.42;;;10.77;;
78732;SDS011;68056;52.530;5.454;2024-03-06T03:07:12;19.75;;;12.30;;
78732;SDS011;68056;52.530;5.454;2024-03-06T03:09:37;16.83;;;10.80;;
78732;SDS011;68056;52.530;5.454;2024-03-06T03:12:03;15.77;;;11.23;;
78732;SDS011;68056;52.530;5.454;2024-03-06T03:14:29;18.67;;;12.13;;
78732;SDS011;68056;52.530;5.454;2024-03-06T03:16:55;20.00;;;13.45;;
78732;SDS011;68056;52.530;5.454;2024-03-06T03:19:20;19.45;;;11.80;;
78732;SDS011;68056;52.530;5.454;2024-03-06T03:21:46;17.90;;;12.13;;
78732;SDS011;68056;52.530;5.454;2024-03-06T03:24:12;17.65;;;12.00;;
78732;SDS011;68056;52.530;5.454;2024-03-06T03:26:38;19.50;;;12.73;;
78732;SDS011;68056;52.530;5.454;2024-03-06T03:29:03;20.33;;;12.63;;
78732;SDS011;68056;52.530;5.454;2024-03-06T03:31:29;15.60;;;10.93;;
78732;SDS011;68056;52.530;5.454;2024-03-06T03:33:54;16.55;;;12.13;;
78732;SDS011;68056;52.530;5.454;2024-03-06T03:36:20;19.13;;;12.40;;
78732;SDS011;68056;52.530;5.454;2024-03-06T03:38:45;19.45;;;12.32;;
78732;SDS011;68056;52.530;5.454;2024-03-06T03:41:11;17.63;;;11.93;;
78732;SDS011;68056;52.530;5.454;2024-03-06T03:43:38;17.38;;;11.30;;
78732;SDS011;68056;52.530;5.454;2024-03-06T03:46:04;17.13;;;11.50;;
78732;SDS011;68056;52.530;5.454;2024-03-06T03:48:31;20.90;;;12.13;;
78732;SDS011;68056;52.530;5.454;2024-03-06T03:50:57;14.02;;;10.43;;
78732;SDS011;68056;52.530;5.454;2024-03-06T03:53:22;16.80;;;10.95;;
78732;SDS011;68056;52.530;5.454;2024-03-06T03:55:48;18.08;;;12.40;;
78732;SDS011;68056;52.530;5.454;2024-03-06T03:58:13;20.02;;;12.80;;
78732;SDS011;68056;52.530;5.454;2024-03-06T04:00:39;18.02;;;13.30;;
78732;SDS011;68056;52.530;5.454;2024-03-06T04:03:04;19.52;;;13.15;;
78732;SDS011;68056;52.530;5.454;2024-03-06T04:05:30;17.45;;;12.48;;
78732;SDS011;68056;52.530;5.454;2024-03-06T04:07:56;19.60;;;12.45;;
78732;SDS011;68056;52.530;5.454;2024-03-06T04:10:22;18.20;;;12.82;;
78732;SDS011;68056;52.530;5.454;2024-03-06T04:12:47;20.38;;;13.63;;
78732;SDS011;68056;52.530;5.454;2024-03-06T04:15:13;19.48;;;13.18;;
78732;SDS011;68056;52.530;5.454;2024-03-06T04:17:39;21.33;;;13.77;;
78732;SDS011;68056;52.530;5.454;2024-03-06T04:20:08;20.67;;;14.10;;
78732;SDS011;68056;52.530;5.454;2024-03-06T04:22:36;20.85;;;13.90;;
78732;SDS011;68056;52.530;5.454;2024-03-06T04:25:03;23.02;;;14.80;;
78732;SDS011;68056;52.530;5.454;2024-03-06T04:27:30;17.20;;;12.30;;
78732;SDS011;68056;52.530;5.454;2024-03-06T04:29:55;22.60;;;15.23;;
78732;SDS011;68056;52.530;5.454;2024-03-06T04:32:21;22.83;;;14.23;;
78732;SDS011;68056;52.530;5.454;2024-03-06T04:34:46;23.15;;;15.30;;
78732;SDS011;68056;52.530;5.454;2024-03-06T04:37:12;21.27;;;12.95;;
78732;SDS011;68056;52.530;5.454;2024-03-06T04:39:38;22.83;;;14.90;;
78732;SDS011;68056;52.530;5.454;2024-03-06T04:42:03;22.38;;;13.82;;
78732;SDS011;68056;52.530;5.454;2024-03-06T04:44:33;19.15;;;13.77;;
78732;SDS011;68056;52.530;5.454;2024-03-06T04:46:59;20.73;;;13.25;;
78732;SDS011;68056;52.530;5.454;2024-03-06T04:49:24;19.92;;;13.23;;
78732;SDS011;68056;52.530;5.454;2024-03-06T04:51:50;22.30;;;12.93;;
78732;SDS011;68056;52.530;5.454;2024-03-06T04:54:15;18.92;;;13.13;;
78732;SDS011;68056;52.530;5.454;2024-03-06T04:56:41;18.92;;;13.32;;
78732;SDS011;68056;52.530;5.454;2024-03-06T04:59:06;19.98;;;12.63;;
78732;SDS011;68056;52.530;5.454;2024-03-06T05:01:32;20.63;;;14.23;;
78732;SDS011;68056;52.530;5.454;2024-03-06T05:03:57;17.00;;;11.98;;
78732;SDS011;68056;52.530;5.454;2024-03-06T05:06:23;20.23;;;12.82;;
78732;SDS011;68056;52.530;5.454;2024-03-06T05:08:49;20.80;;;12.73;;
78732;SDS011;68056;52.530;5.454;2024-03-06T05:11:14;21.88;;;13.15;;
78732;SDS011;68056;52.530;5.454;2024-03-06T05:13:40;23.30;;;14.80;;
78732;SDS011;68056;52.530;5.454;2024-03-06T05:16:06;19.38;;;13.23;;
78732;SDS011;68056;52.530;5.454;2024-03-06T05:18:34;17.67;;;11.93;;
78732;SDS011;68056;52.530;5.454;2024-03-06T05:21:00;21.00;;;12.60;;
78732;SDS011;68056;52.530;5.454;2024-03-06T05:23:29;17.75;;;10.93;;
78732;SDS011;68056;52.530;5.454;2024-03-06T05:25:54;19.15;;;12.55;;
78732;SDS011;68056;52.530;5.454;2024-03-06T05:28:20;20.13;;;13.07;;
78732;SDS011;68056;52.530;5.454;2024-03-06T05:30:48;20.60;;;12.57;;
78732;SDS011;68056;52.530;5.454;2024-03-06T05:33:14;20.08;;;12.60;;
78732;SDS011;68056;52.530;5.454;2024-03-06T05:35:40;17.10;;;11.40;;
78732;SDS011;68056;52.530;5.454;2024-03-06T05:38:06;19.17;;;12.30;;
78732;SDS011;68056;52.530;5.454;2024-03-06T05:40:32;20.20;;;11.85;;
78732;SDS011;68056;52.530;5.454;2024-03-06T05:43:02;15.20;;;10.48;;
78732;SDS011;68056;52.530;5.454;2024-03-06T05:45:28;16.20;;;11.57;;
78732;SDS011;68056;52.530;5.454;2024-03-06T05:47:54;17.30;;;12.00;;
78732;SDS011;68056;52.530;5.454;2024-03-06T05:50:19;17.25;;;11.48;;
78732;SDS011;68056;52.530;5.454;2024-03-06T05:52:45;16.63;;;11.30;;
78732;SDS011;68056;52.530;5.454;2024-03-06T05:55:11;15.80;;;11.70;;
78732;SDS011;68056;52.530;5.454;2024-03-06T05:57:36;14.90;;;10.95;;
78732;SDS011;68056;52.530;5.454;2024-03-06T06:00:02;14.63;;;10.98;;
78732;SDS011;68056;52.530;5.454;2024-03-06T06:02:29;13.50;;;9.25;;
78732;SDS011;68056;52.530;5.454;2024-03-06T06:04:55;14.95;;;10.50;;
78732;SDS011;68056;52.530;5.454;2024-03-06T06:07:21;14.52;;;9.98;;
78732;SDS011;68056;52.530;5.454;2024-03-06T06:09:46;16.38;;;8.93;;
78732;SDS011;68056;52.530;5.454;2024-03-06T06:12:12;15.23;;;10.15;;
78732;SDS011;68056;52.530;5.454;2024-03-06T06:14:37;15.07;;;10.13;;
78732;SDS011;68056;52.530;5.454;2024-03-06T06:17:03;12.00;;;9.20;;
78732;SDS011;68056;52.530;5.454;2024-03-06T06:19:29;14.43;;;9.50;;
78732;SDS011;68056;52.530;5.454;2024-03-06T06:21:54;20.20;;;13.52;;
78732;SDS011;68056;52.530;5.454;2024-03-06T06:24:20;25.88;;;12.20;;
78732;SDS011;68056;52.530;5.454;2024-03-06T06:26:45;16.65;;;11.65;;
78732;SDS011;68056;52.530;5.454;2024-03-06T06:29:11;20.67;;;13.52;;
78732;SDS011;68056;52.530;5.454;2024-03-06T06:31:36;20.20;;;12.45;;
78732;SDS011;68056;52.530;5.454;2024-03-06T06:34:02;27.90;;;15.32;;
78732;SDS011;68056;52.530;5.454;2024-03-06T06:36:28;18.67;;;11.38;;
78732;SDS011;68056;52.530;5.454;2024-03-06T06:38:54;21.50;;;13.35;;
78732;SDS011;68056;52.530;5.454;2024-03-06T06:41:20;21.83;;;12.70;;
78732;SDS011;68056;52.530;5.454;2024-03-06T06:43:45;19.38;;;12.40;;
78732;SDS011;68056;52.530;5.454;2024-03-06T06:46:11;28.70;;;16.38;;
78732;SDS011;68056;52.530;5.454;2024-03-06T06:48:38;23.13;;;15.77;;
78732;SDS011;68056;52.530;5.454;2024-03-06T06:51:03;23.02;;;14.32;;
78732;SDS011;68056;52.530;5.454;2024-03-06T06:53:29;23.75;;;13.50;;
78732;SDS011;68056;52.530;5.454;2024-03-06T06:55:55;26.63;;;16.75;;
78732;SDS011;68056;52.530;5.454;2024-03-06T06:58:22;20.42;;;13.73;;
78732;SDS011;68056;52.530;5.454;2024-03-06T07:00:48;24.88;;;15.93;;
78732;SDS011;68056;52.530;5.454;2024-03-06T07:03:13;26.38;;;16.35;;
78732;SDS011;68056;52.530;5.454;2024-03-06T07:05:39;24.42;;;14.93;;
78732;SDS011;68056;52.530;5.454;2024-03-06T07:08:07;17.95;;;12.57;;
78732;SDS011;68056;52.530;5.454;2024-03-06T07:10:33;26.92;;;15.02;;
78732;SDS011;68056;52.530;5.454;2024-03-06T07:13:00;24.73;;;15.00;;
78732;SDS011;68056;52.530;5.454;2024-03-06T07:15:27;23.95;;;15.43;;
78732;SDS011;68056;52.530;5.454;2024-03-06T07:17:53;24.52;;;13.80;;
78732;SDS011;68056;52.530;5.454;2024-03-06T07:20:19;20.48;;;14.25;;
78732;SDS011;68056;52.530;5.454;2024-03-06T07:22:44;24.50;;;14.45;;
78732;SDS011;68056;52.530;5.454;2024-03-06T07:25:10;21.17;;;11.85;;
78732;SDS011;68056;52.530;5.454;2024-03-06T07:27:35;20.15;;;12.25;;
78732;SDS011;68056;52.530;5.454;2024-03-06T07:30:01;21.90;;;13.52;;
78732;SDS011;68056;52.530;5.454;2024-03-06T07:32:27;23.52;;;14.30;;
78732;SDS011;68056;52.530;5.454;2024-03-06T07:34:52;18.83;;;12.20;;
78732;SDS011;68056;52.530;5.454;2024-03-06T07:37:18;18.70;;;12.65;;
78732;SDS011;68056;52.530;5.454;2024-03-06T07:39:44;20.23;;;13.45;;
78732;SDS011;68056;52.530;5.454;2024-03-06T07:42:10;20.30;;;11.93;;
78732;SDS011;68056;52.530;5.454;2024-03-06T07:44:36;26.95;;;13.30;;
78732;SDS011;68056;52.530;5.454;2024-03-06T07:47:03;19.02;;;12.07;;
78732;SDS011;68056;52.530;5.454;2024-03-06T07:49:30;15.23;;;11.20;;
78732;SDS011;68056;52.530;5.454;2024-03-06T07:51:56;17.75;;;12.75;;
78732;SDS011;68056;52.530;5.454;2024-03-06T07:54:22;17.05;;;11.35;;
78732;SDS011;68056;52.530;5.454;2024-03-06T07:56:48;16.52;;;10.95;;
78732;SDS011;68056;52.530;5.454;2024-03-06T07:59:14;16.48;;;11.63;;
78732;SDS011;68056;52.530;5.454;2024-03-06T08:01:40;19.55;;;11.82;;
78732;SDS011;68056;52.530;5.454;2024-03-06T08:04:06;16.67;;;10.80;;
78732;SDS011;68056;52.530;5.454;2024-03-06T08:06:31;18.52;;;13.43;;
78732;SDS011;68056;52.530;5.454;2024-03-06T08:08:58;21.55;;;14.20;;
78732;SDS011;68056;52.530;5.454;2024-03-06T08:11:24;17.75;;;13.35;;
78732;SDS011;68056;52.530;5.454;2024-03-06T08:13:50;15.57;;;11.43;;
78732;SDS011;68056;52.530;5.454;2024-03-06T08:16:21;21.35;;;13.43;;
78732;SDS011;68056;52.530;5.454;2024-03-06T08:18:47;14.18;;;10.63;;
78732;SDS011;68056;52.530;5.454;2024-03-06T08:21:12;15.32;;;11.95;;
78732;SDS011;68056;52.530;5.454;2024-03-06T08:23:38;14.30;;;9.15;;
78732;SDS011;68056;52.530;5.454;2024-03-06T08:26:04;14.38;;;9.18;;
78732;SDS011;68056;52.530;5.454;2024-03-06T08:28:29;15.60;;;11.20;;
78732;SDS011;68056;52.530;5.454;2024-03-06T08:30:55;16.85;;;10.98;;
78732;SDS011;68056;52.530;5.454;2024-03-06T08:33:21;19.83;;;11.93;;
78732;SDS011;68056;52.530;5.454;2024-03-06T08:35:47;17.73;;;10.85;;
78732;SDS011;68056;52.530;5.454;2024-03-06T08:38:13;15.20;;;10.40;;
78732;SDS011;68056;52.530;5.454;2024-03-06T08:40:39;15.43;;;10.30;;
78732;SDS011;68056;52.530;5.454;2024-03-06T08:43:06;15.98;;;10.82;;
78732;SDS011;68056;52.530;5.454;2024-03-06T08:45:34;17.77;;;11.45;;
78732;SDS011;68056;52.530;5.454;2024-03-06T08:47:59;15.98;;;10.85;;
78732;SDS011;68056;52.530;5.454;2024-03-06T08:50:25;20.98;;;12.27;;
78732;SDS011;68056;52.530;5.454;2024-03-06T08:52:53;19.70;;;11.50;;
78732;SDS011;68056;52.530;5.454;2024-03-06T08:55:19;20.67;;;12.70;;
78732;SDS011;68056;52.530;5.454;2024-03-06T08:57:45;19.10;;;12.88;;
78732;SDS011;68056;52.530;5.454;2024-03-06T09:00:10;19.80;;;11.93;;
78732;SDS011;68056;52.530;5.454;2024-03-06T09:02:39;17.00;;;12.02;;
78732;SDS011;68056;52.530;5.454;2024-03-06T09:05:07;16.52;;;9.60;;
78732;SDS011;68056;52.530;5.454;2024-03-06T09:07:35;18.35;;;11.93;;
78732;SDS011;68056;52.530;5.454;2024-03-06T09:10:02;17.23;;;11.15;;
78732;SDS011;68056;52.530;5.454;2024-03-06T09:12:32;12.77;;;9.45;;
78732;SDS011;68056;52.530;5.454;2024-03-06T09:14:57;17.90;;;11.27;;
78732;SDS011;68056;52.530;5.454;2024-03-06T09:17:25;17.27;;;11.38;;
78732;SDS011;68056;52.530;5.454;2024-03-06T09:19:51;17.95;;;12.15;;
78732;SDS011;68056;52.530;5.454;2024-03-06T09:22:17;19.05;;;10.57;;
78732;SDS011;68056;52.530;5.454;2024-03-06T09:24:42;15.48;;;10.73;;
78732;SDS011;68056;52.530;5.454;2024-03-06T09:27:08;16.38;;;9.75;;
78732;SDS011;68056;52.530;5.454;2024-03-06T09:29:34;19.88;;;11.77;;
78732;SDS011;68056;52.530;5.454;2024-03-06T09:31:59;16.42;;;11.15;;
78732;SDS011;68056;52.530;5.454;2024-03-06T09:34:25;16.92;;;10.35;;
78732;SDS011;68056;52.530;5.454;2024-03-06T09:36:51;16.52;;;10.82;;
78732;SDS011;68056;52.530;5.454;2024-03-06T09:39:17;15.95;;;10.88;;
78732;SDS011;68056;52.530;5.454;2024-03-06T09:41:48;17.45;;;10.85;;
78732;SDS011;68056;52.530;5.454;2024-03-06T09:44:17;17.73;;;11.52;;
78732;SDS011;68056;52.530;5.454;2024-03-06T09:46:44;14.05;;;9.77;;
78732;SDS011;68056;52.530;5.454;2024-03-06T09:49:11;14.90;;;10.25;;
78732;SDS011;68056;52.530;5.454;2024-03-06T09:51:39;15.55;;;12.13;;
78732;SDS011;68056;52.530;5.454;2024-03-06T09:54:15;19.17;;;11.65;;
78732;SDS011;68056;52.530;5.454;2024-03-06T09:56:42;13.65;;;10.20;;
78732;SDS011;68056;52.530;5.454;2024-03-06T09:59:17;14.38;;;10.20;;
78732;SDS011;68056;52.530;5.454;2024-03-06T10:01:55;14.45;;;9.23;;
78732;SDS011;68056;52.530;5.454;2024-03-06T10:06:48;12.05;;;8.23;;
78732;SDS011;68056;52.530;5.454;2024-03-06T10:09:16;12.98;;;8.57;;
78732;SDS011;68056;52.530;5.454;2024-03-06T10:11:43;13.88;;;8.52;;
78732;SDS011;68056;52.530;5.454;2024-03-06T10:14:09;15.00;;;10.48;;
78732;SDS011;68056;52.530;5.454;2024-03-06T10:16:35;14.45;;;9.85;;
78732;SDS011;68056;52.530;5.454;2024-03-06T10:19:16;13.75;;;8.77;;
78732;SDS011;68056;52.530;5.454;2024-03-06T10:21:43;15.07;;;11.13;;
78732;SDS011;68056;52.530;5.454;2024-03-06T10:24:10;13.82;;;9.32;;
78732;SDS011;68056;52.530;5.454;2024-03-06T10:26:36;15.57;;;9.82;;
78732;SDS011;68056;52.530;5.454;2024-03-06T10:29:01;11.02;;;9.07;;
78732;SDS011;68056;52.530;5.454;2024-03-06T10:31:28;14.00;;;9.23;;
78732;SDS011;68056;52.530;5.454;2024-03-06T10:33:53;11.18;;;8.38;;
78732;SDS011;68056;52.530;5.454;2024-03-06T10:36:19;14.30;;;9.50;;
78732;SDS011;68056;52.530;5.454;2024-03-06T10:38:44;10.00;;;7.78;;
78732;SDS011;68056;52.530;5.454;2024-03-06T10:41:16;12.55;;;8.40;;
78732;SDS011;68056;52.530;5.454;2024-03-06T10:43:47;14.18;;;9.13;;
78732;SDS011;68056;52.530;5.454;2024-03-06T10:46:15;10.77;;;7.47;;
78732;SDS011;68056;52.530;5.454;2024-03-06T10:48:44;18.27;;;8.93;;
78732;SDS011;68056;52.530;5.454;2024-03-06T10:51:11;15.15;;;10.02;;
78732;SDS011;68056;52.530;5.454;2024-03-06T10:53:39;12.30;;;9.40;;
78732;SDS011;68056;52.530;5.454;2024-03-06T10:56:08;11.27;;;7.93;;
78732;SDS011;68056;52.530;5.454;2024-03-06T10:58:34;12.05;;;8.20;;
78732;SDS011;68056;52.530;5.454;2024-03-06T11:01:00;10.98;;;8.15;;
78732;SDS011;68056;52.530;5.454;2024-03-06T11:03:28;10.43;;;8.52;;
78732;SDS011;68056;52.530;5.454;2024-03-06T11:05:56;13.88;;;8.98;;
78732;SDS011;68056;52.530;5.454;2024-03-06T11:08:22;12.00;;;9.45;;
78732;SDS011;68056;52.530;5.454;2024-03-06T11:10:49;12.45;;;8.85;;
78732;SDS011;68056;52.530;5.454;2024-03-06T11:15:46;12.32;;;8.77;;
78732;SDS011;68056;52.530;5.454;2024-03-06T11:21:44;9.65;;;7.90;;
78732;SDS011;68056;52.530;5.454;2024-03-06T11:26:45;11.23;;;8.02;;
78732;SDS011;68056;52.530;5.454;2024-03-06T11:32:35;10.25;;;7.25;;
78732;SDS011;68056;52.530;5.454;2024-03-06T11:35:02;10.60;;;7.35;;
78732;SDS011;68056;52.530;5.454;2024-03-06T11:37:33;10.13;;;7.40;;
78732;SDS011;68056;52.530;5.454;2024-03-06T11:40:01;12.93;;;8.63;;
78732;SDS011;68056;52.530;5.454;2024-03-06T11:42:33;9.45;;;6.93;;
78732;SDS011;68056;52.530;5.454;2024-03-06T11:45:13;9.82;;;7.35;;
78732;SDS011;68056;52.530;5.454;2024-03-06T11:48:00;10.27;;;7.32;;
78732;SDS011;68056;52.530;5.454;2024-03-06T11:50:28;8.63;;;6.75;;
78732;SDS011;68056;52.530;5.454;2024-03-06T11:52:56;8.52;;;7.15;;
78732;SDS011;68056;52.530;5.454;2024-03-06T11:55:22;7.75;;;6.15;;
78732;SDS011;68056;52.530;5.454;2024-03-06T11:57:51;7.40;;;5.80;;
78732;SDS011;68056;52.530;5.454;2024-03-06T12:00:18;8.60;;;6.20;;
78732;SDS011;68056;52.530;5.454;2024-03-06T12:02:46;7.60;;;4.93;;
78732;SDS011;68056;52.530;5.454;2024-03-06T12:05:12;6.75;;;5.32;;
78732;SDS011;68056;52.530;5.454;2024-03-06T12:07:50;7.70;;;5.57;;
78732;SDS011;68056;52.530;5.454;2024-03-06T12:10:16;7.28;;;5.32;;
78732;SDS011;68056;52.530;5.454;2024-03-06T12:12:43;6.05;;;5.00;;
78732;SDS011;68056;52.530;5.454;2024-03-06T12:15:09;8.27;;;5.47;;
78732;SDS011;68056;52.530;5.454;2024-03-06T12:17:43;7.15;;;5.05;;
78732;SDS011;68056;52.530;5.454;2024-03-06T12:20:17;7.88;;;6.05;;
78732;SDS011;68056;52.530;5.454;2024-03-06T12:22:49;6.93;;;5.35;;
78732;SDS011;68056;52.530;5.454;2024-03-06T12:25:22;5.68;;;4.43;;
78732;SDS011;68056;52.530;5.454;2024-03-06T12:27:50;6.50;;;5.63;;
78732;SDS011;68056;52.530;5.454;2024-03-06T12:30:16;9.68;;;5.97;;
78732;SDS011;68056;52.530;5.454;2024-03-06T12:32:43;6.05;;;4.88;;
78732;SDS011;68056;52.530;5.454;2024-03-06T12:35:09;6.88;;;4.70;;
78732;SDS011;68056;52.530;5.454;2024-03-06T12:37:35;7.22;;;4.85;;
78732;SDS011;68056;52.530;5.454;2024-03-06T12:40:01;5.72;;;4.63;;
78732;SDS011;68056;52.530;5.454;2024-03-06T12:42:30;7.78;;;5.82;;
78732;SDS011;68056;52.530;5.454;2024-03-06T12:44:56;8.40;;;6.88;;
78732;SDS011;68056;52.530;5.454;2024-03-06T12:47:22;9.18;;;6.50;;
78732;SDS011;68056;52.530;5.454;2024-03-06T12:49:47;10.95;;;6.20;;
78732;SDS011;68056;52.530;5.454;2024-03-06T12:52:13;9.00;;;6.28;;
78732;SDS011;68056;52.530;5.454;2024-03-06T12:54:39;8.50;;;6.03;;
78732;SDS011;68056;52.530;5.454;2024-03-06T12:57:04;6.88;;;5.70;;
78732;SDS011;68056;52.530;5.454;2024-03-06T12:59:30;8.73;;;6.03;;
78732;SDS011;68056;52.530;5.454;2024-03-06T13:01:55;8.77;;;6.32;;
78732;SDS011;68056;52.530;5.454;2024-03-06T13:04:22;9.75;;;6.30;;
78732;SDS011;68056;52.530;5.454;2024-03-06T13:06:47;8.38;;;6.35;;
78732;SDS011;68056;52.530;5.454;2024-03-06T13:09:13;10.20;;;6.60;;
78732;SDS011;68056;52.530;5.454;2024-03-06T13:11:39;7.88;;;6.22;;
78732;SDS011;68056;52.530;5.454;2024-03-06T13:14:07;7.97;;;5.85;;
78732;SDS011;68056;52.530;5.454;2024-03-06T13:16:35;8.63;;;5.95;;
78732;SDS011;68056;52.530;5.454;2024-03-06T13:19:00;7.25;;;5.50;;
78732;SDS011;68056;52.530;5.454;2024-03-06T13:21:28;8.15;;;5.70;;
78732;SDS011;68056;52.530;5.454;2024-03-06T13:23:54;7.45;;;5.97;;
78732;SDS011;68056;52.530;5.454;2024-03-06T13:26:19;9.55;;;6.30;;
78732;SDS011;68056;52.530;5.454;2024-03-06T13:28:45;7.95;;;6.00;;
78732;SDS011;68056;52.530;5.454;2024-03-06T13:31:11;9.50;;;6.97;;
78732;SDS011;68056;52.530;5.454;2024-03-06T13:33:36;7.68;;;6.13;;
78732;SDS011;68056;52.530;5.454;2024-03-06T13:36:02;8.10;;;5.47;;
78732;SDS011;68056;52.530;5.454;2024-03-06T13:38:28;8.05;;;6.07;;
78732;SDS011;68056;52.530;5.454;2024-03-06T13:40:54;8.93;;;6.20;;
78732;SDS011;68056;52.530;5.454;2024-03-06T13:43:19;8.20;;;5.47;;
78732;SDS011;68056;52.530;5.454;2024-03-06T13:45:51;12.15;;;6.40;;
78732;SDS011;68056;52.530;5.454;2024-03-06T13:48:17;7.65;;;6.05;;
78732;SDS011;68056;52.530;5.454;2024-03-06T13:50:43;7.90;;;5.45;;
78732;SDS011;68056;52.530;5.454;2024-03-06T13:53:10;9.32;;;6.47;;
78732;SDS011;68056;52.530;5.454;2024-03-06T13:55:35;7.72;;;5.65;;
78732;SDS011;68056;52.530;5.454;2024-03-06T13:58:01;7.70;;;5.70;;
78732;SDS011;68056;52.530;5.454;2024-03-06T14:00:27;9.05;;;5.72;;
78732;SDS011;68056;52.530;5.454;2024-03-06T14:02:53;7.18;;;5.20;;
78732;SDS011;68056;52.530;5.454;2024-03-06T14:05:18;8.00;;;5.30;;
78732;SDS011;68056;52.530;5.454;2024-03-06T14:07:49;10.43;;;6.53;;
78732;SDS011;68056;52.530;5.454;2024-03-06T14:10:16;9.50;;;7.15;;
78732;SDS011;68056;52.530;5.454;2024-03-06T14:12:44;13.00;;;8.90;;
78732;SDS011;68056;52.530;5.454;2024-03-06T14:15:10;12.90;;;7.63;;
78732;SDS011;68056;52.530;5.454;2024-03-06T14:17:40;12.38;;;7.68;;
78732;SDS011;68056;52.530;5.454;2024-03-06T14:20:06;10.93;;;7.70;;
78732;SDS011;68056;52.530;5.454;2024-03-06T14:22:32;10.65;;;7.32;;
78732;SDS011;68056;52.530;5.454;2024-03-06T14:24:58;10.40;;;7.07;;
78732;SDS011;68056;52.530;5.454;2024-03-06T14:27:24;11.55;;;8.07;;
78732;SDS011;68056;52.530;5.454;2024-03-06T14:29:49;11.57;;;7.63;;
78732;SDS011;68056;52.530;5.454;2024-03-06T14:32:16;12.75;;;8.52;;
78732;SDS011;68056;52.530;5.454;2024-03-06T14:34:44;11.10;;;7.05;;
78732;SDS011;68056;52.530;5.454;2024-03-06T14:37:09;12.75;;;8.38;;
78732;SDS011;68056;52.530;5.454;2024-03-06T14:39:35;13.68;;;8.57;;
78732;SDS011;68056;52.530;5.454;2024-03-06T14:42:01;12.40;;;7.38;;
78732;SDS011;68056;52.530;5.454;2024-03-06T14:44:30;11.82;;;7.60;;